Create Custom Reports and Graphics: Custom Report

Latest Observations

Map

15 Minute Data

Lodi West

Latest Observations

15 Minute Data | America/Los_Angeles
as of 7/18/19 9:09 PM PDT
Station Date Time Temp (°F) Dew Pt (°F) RH (%) Wind Dir (°) Wind Spd (mph) Wind Gust (mph) Latest Rain (In) Daily Rain (In) Daily Min Temp (°F) Daily Max Temp (°F)
Utter - Wilson 7/18/19 2100 69.3   9.0 59.0   2.3 70   14 SSW | 205 8.0   5.0 14.0   8.5 0.00 0.00 60.7   2.8 88.5   9.2
Clarksburg (CLK) 7/18/19 2100 68.8   7.0 59.6   1.9 72   11 SSW | 210 7.7   4.9 17.9   11.3 0.00 0.00 60.6   3.2 89.6   8.5
Gorter - Wilson 7/18/19 2100 69.6   8.2 59.2   1.2 70   14 SW | 219 7.0   3.2 13.8   6.3 0.00 0.00 61.1   6.9 88.6   7.1
Hood (HOD) 7/18/19 2100 69.6   7.8 60.3   1.3 72   14 SW | 228 6.8   3.1 14.6   7.1 0.00 0.00 61.6   5.7 86.6   6.4
Courtland-C3 7/18/19 2100 69.4   8.6 58.2   1.0 67   15 SW | 230 6.9   1.7 14.1   4.8 0.00 0.00 60.0   2.8 88.2   6.1
Pacific Fruit 7/18/19 2100 70.3   8.7 59.0   0.5 67   16 WSW | 240 7.4   2.2 12.8   1.9 0.00 0.00 60.5   5.6 88.4   9.4
Ryer Island South (RIS) 7/18/19 2100 70.6   8.4 58.1   0.3 65   15 WSW | 246 5.4   2.5 12.4   5.0 0.00 0.00 61.1   2.8 87.7   5.4
Guard Rd (Lodi WSW) 7/18/19 2100 69.8   2.1 59.3   4.0 69   5 W | 272 5.2   2.6 11.5   6.9 0.00 0.00 58.6   5.8 89.0   5.0
Claussen 7/18/19 2100 73.7   6.1 58.3   1.1 58   13 WNW | 292 6.0   2.8 11.8   5.7 0.00 0.00 62.9   3.7 92.7   4.5
Max     73.7 60.3 72 - 8.0 17.9 0.00 0.00 62.9 92.7
Avg     70.1 59.0 68 - 6.7 13.7 0.00 - - -
Min     68.8 58.1 58 - 5.2 11.5 0.00 0.00 58.6 86.6

Lodi Central

Latest Observations

15 Minute Data | America/Los_Angeles
as of 7/18/19 9:09 PM PDT
Station Date Time Temp (°F) Dew Pt (°F) RH (%) Wind Dir (°) Wind Spd (mph) Wind Gust (mph) Latest Rain (In) Daily Rain (In) Daily Min Temp (°F) Daily Max Temp (°F)
Galt West (GAW) 7/18/19 2100 70.5   8.5 58.6   0.6 66   15 SW | 234 3.0   0.8 7.9   1.0 0.00 0.00 58.2   3.5 89.6   3.6
Valley Oak 7/18/19 2100 71.8   6.5 56.9   2.6 59   7 WSW | 255 4.5   2.3 9.4   5.3 0.00 0.00 57.8   4.9 89.3   6.3
Thornton 7/18/19 2100 72.1   4.9 57.2   3.2 59   3 WSW | 256 4.6   2.8 10.5   5.0 0.00 0.00 57.8   5.0 88.3   3.9
Kost Rd 7/18/19 2100 71.4   5.0 59.1   3.4 65   3 WSW | 250 4.4   3.2 7.4   4.6 0.00 0.00 58.0   4.3 88.9   5.2
DeVries Road-North 7/18/19 2100 73.6   6.7 58.4   2.1 59   8 W | 262 5.1   1.8 8.5   3.2 0.00 0.00 59.9   4.1 92.6   4.5
Lodi (LangeTwins) 7/18/19 2100 72.6   7.9 58.8   1.3 62   12 W | 266 6.3   1.4 12.8   5.0 0.00 0.00 59.6   4.9 89.8   7.0
Acampo (ACP) 7/18/19 2100 72.1   6.7 57.5   1.2 60   10 W | 266 3.7   0.1 7.8   0.0 0.00 0.00 58.5   3.7 90.0   4.4
Lodi West (MDW) 7/18/19 2100 71.6   8.3 58.4   0.1 63   15 WNW | 282 4.0   0.0 11.4   0.4 0.00 0.00 60.9   5.8 90.5   3.9
Max     73.6 59.1 66 - 6.3 12.8 0.00 0.00 60.9 92.6
Avg     71.9 58.1 62 - 4.5 9.5 0.00 - - -
Min     70.5 56.9 59 - 3.0 7.4 0.00 0.00 57.8 88.3

Latest Observation

19 Stations

15 Minute Data | America/Los_Angeles
as of 7/18/19 9:09 PM PDT
Station Date Time Temp (°F) Dew Pt (°F) RH (%) Wind Spd (mph) Wind Dir (°) Wind Gust (mph) Latest Rain (In) Daily Rain (In) Daily Min Temp (°F) Daily Max Temp (°F)
Borden Hills 7/18/19 2100 74.7   4.3 60.4   1.3 61   6 3.1   0.3 W | 275 4.1   0.1 0.00 0.00 61.8   5.2 93.6   3.6
Collegeville (COL) 7/18/19 2100 73.6   2.3 59.0   1.6 60   7 3.1   1.0 WNW | 288 5.0   1.8 0.00 0.00 59.3   5.3 92.2   2.8
Galt-East (EGT) 7/18/19 2100 72.4   5.4 59.5   1.0 64   9 3.4   1.4 W | 279 7.0   2.8 0.00 0.00 59.3   5.8 91.3   4.7
Escalon (ESL) 7/18/19 2100 76.4   1.4 58.8   3.0 55   4 3.8   2.7 NW | 311 8.8   5.1 0.00 0.00 60.9   4.8 94.2   0.1
Victor - N (Katusha) 7/18/19 2100 72.1   6.7 56.9   1.0 59   10 2.9   0.0 WNW | 285 5.8   0.3 0.00 0.00 57.0   4.4 91.4   2.8
Gilbeau Ranch 7/18/19 2100 73.4   4.9 58.2   0.6 59   8 4.7   1.5 W | 273 9.9   4.8 0.00 0.00 57.2   3.6 91.2   4.4
Lodi 7/18/19 1930 79.5   8.7 57.6   0.8 47   12 5.9   5.0 E | 80 10.0   6.0 0.00 0.00 58.5   5.8 89.1   6.9
Linden (LIN) 7/18/19 2100 72.1   1.9 59.0   2.9 63   3 4.2   2.6 WNW | 297 9.6   6.8 0.00 0.00 55.8   4.2 92.0   3.0
Live Oak (LIV) 7/18/19 2100 71.5   4.9 59.2   1.7 65   6 5.1   2.2 W | 276 10.4   4.8 0.00 0.00 58.1   4.3 90.8   6.1
Lockeford (LOC) 7/18/19 2100 73.0   4.8 - - 3.4   1.4 W | 272 7.9   3.4 0.00 0.00 58.9   4.1 90.9   2.8
Lone Oak-L28 7/18/19 2100 71.6   2.3 58.4   4.7 63   17 4.5   3.5 WNW | 291 8.4   6.4 0.00 0.00 55.9   4.8 92.9   2.6
Sheldon (SHL) 7/18/19 0900 72.4   3.7 58.4   0.4 61   7 3.4   0.6 WSW | 255 5.8   0.3 0.00 0.00 57.8   3.7 72.9   3.3
Sierra Loma-L27 7/18/19 2100 72.2   4.6 60.0   1.1 65   7 2.1   1.2 S | 178 4.2   0.4 0.00 0.00 60.5   4.5 92.9   5.3
Simmerhorn (SIM) 7/18/19 2100 72.0   2.6 56.0   2.8 57   1 - - - - - 57.4   3.2 91.4   3.9
Sloughhouse (SLH) 7/18/19 2100 72.2   9.4 - - 0.6   2.5 WSW | 237 5.4   0.0 0.00 0.00 - -
5 Wells 7/18/19 2100 73.6   7.5 58.6   1.2 59   11 5.2   0.5 W | 259 9.7   2.8 0.00 0.00 60.0   4.4 90.6   4.4
Max     76.4 60.4 65 5.2 - 10.4 0.00 0.00 61.8 94.2
Avg     72.9 58.7 61 3.5 - 7.4 0.00 - - -
Min     71.5 56.0 55 0.6 - 4.1 0.00 0.00 55.8 90.6